createdAt,value
2023-03-11T00:00:26.747Z,93577.16
2023-03-11T00:02:58.972Z,93569.25
2023-03-11T00:05:27.923Z,93573.94
2023-03-11T00:07:55.698Z,93564.16
2023-03-11T00:10:29.323Z,93579.41
2023-03-11T00:12:56.601Z,93585.50
2023-03-11T00:15:23.201Z,93586.63
2023-03-11T00:17:50.878Z,93592.31
2023-03-11T00:20:19.863Z,93607.47
2023-03-11T00:22:47.160Z,93611.63
2023-03-11T00:25:14.848Z,93614.84
2023-03-11T00:27:43.024Z,93620.69
2023-03-11T00:30:11.671Z,93611.91
2023-03-11T00:32:38.724Z,93625.47
2023-03-11T00:35:06.888Z,93630.28
2023-03-11T00:37:33.566Z,93627.19
2023-03-11T00:40:00.338Z,93638.53
2023-03-11T00:42:26.895Z,93645.53
2023-03-11T00:44:54.851Z,93646.63
2023-03-11T00:47:21.427Z,93649.25
2023-03-11T00:49:48.009Z,93653.63
2023-03-11T00:52:14.600Z,93662.69
2023-03-11T00:54:41.176Z,93668.66
2023-03-11T00:57:07.883Z,93673.75
2023-03-11T00:59:34.575Z,93685.03
2023-03-11T01:02:02.455Z,93683.22
2023-03-11T01:04:29.461Z,93687.44
2023-03-11T01:06:56.102Z,93695.31
2023-03-11T01:09:22.660Z,93689.50
2023-03-11T01:11:49.287Z,93690.41
2023-03-11T01:14:15.938Z,93676.25
2023-03-11T01:16:42.483Z,93681.13
2023-03-11T01:19:10.410Z,93674.72
2023-03-11T01:21:37.007Z,93678.28
2023-03-11T01:24:03.810Z,93677.88
2023-03-11T01:26:30.472Z,93686.06
2023-03-11T01:28:57.116Z,93686.88
2023-03-11T01:31:23.968Z,93685.16
2023-03-11T01:33:50.562Z,93681.84
2023-03-11T01:36:18.501Z,93694.28
2023-03-11T01:38:45.115Z,93692.88
2023-03-11T01:41:12.238Z,93693.69
2023-03-11T01:43:51.449Z,93693.16
2023-03-11T01:46:19.903Z,93691.41
2023-03-11T01:48:49.083Z,93680.28
2023-03-11T01:51:19.539Z,93673.59
2023-03-11T01:53:46.937Z,93668.75
2023-03-11T01:56:14.300Z,93670.97
2023-03-11T01:58:44.968Z,93674.72
2023-03-11T02:01:12.921Z,93670.81
2023-03-11T02:03:40.841Z,93676.94
2023-03-11T02:06:10.732Z,93663.03
2023-03-11T02:08:39.509Z,93671.69
2023-03-11T02:11:08.958Z,93684.00
2023-03-11T02:13:36.993Z,93676.03
2023-03-11T02:16:04.487Z,93678.41
2023-03-11T02:18:31.890Z,93679.78
2023-03-11T02:21:05.924Z,93675.91
2023-03-11T02:23:39.519Z,93656.28
2023-03-11T02:26:12.621Z,93664.38
2023-03-11T02:28:42.566Z,93678.41
2023-03-11T02:31:09.989Z,93678.06
2023-03-11T02:33:37.226Z,93682.75
2023-03-11T02:36:04.663Z,93682.19
2023-03-11T02:38:31.279Z,93667.81
2023-03-11T02:40:59.034Z,93679.88
2023-03-11T02:43:33.585Z,93688.09
2023-03-11T02:46:02.933Z,93692.56
2023-03-11T02:48:30.591Z,93693.09
2023-03-11T02:50:58.675Z,93701.28
2023-03-11T02:53:28.462Z,93689.28
2023-03-11T02:55:54.843Z,93685.06
2023-03-11T02:58:21.388Z,93682.72
2023-03-11T03:00:48.048Z,93680.81
2023-03-11T03:03:16.215Z,93672.75
2023-03-11T03:05:42.861Z,93670.53
2023-03-11T03:08:09.474Z,93673.28
2023-03-11T03:10:36.023Z,93668.84
2023-03-11T03:13:02.743Z,93684.47
2023-03-11T03:15:30.330Z,93681.72
2023-03-11T03:17:56.886Z,93690.75
2023-03-11T03:20:26.507Z,93698.50
2023-03-11T03:22:53.515Z,93701.22
2023-03-11T03:25:20.090Z,93696.75
2023-03-11T03:27:46.891Z,93697.97
2023-03-11T03:30:13.797Z,93687.28
2023-03-11T03:32:40.586Z,93687.75
2023-03-11T03:35:08.460Z,93685.00
2023-03-11T03:37:37.528Z,93690.97
2023-03-11T03:40:07.839Z,93704.53
2023-03-11T03:42:35.122Z,93710.81
2023-03-11T03:45:02.436Z,93712.31
2023-03-11T03:47:29.030Z,93711.84
2023-03-11T03:49:55.606Z,93711.72
2023-03-11T03:52:22.194Z,93711.28
2023-03-11T03:54:50.372Z,93708.53
2023-03-11T03:57:17.519Z,93709.03
2023-03-11T03:59:44.138Z,93705.84
2023-03-11T04:02:10.796Z,93703.47
2023-03-11T04:04:37.402Z,93707.19
2023-03-11T04:07:04.538Z,93699.06
2023-03-11T04:09:31.402Z,93714.94
2023-03-11T04:12:00.191Z,93718.25
2023-03-11T04:14:26.776Z,93712.59
2023-03-11T04:16:53.473Z,93703.75
2023-03-11T04:19:20.222Z,93707.84
2023-03-11T04:21:46.808Z,93705.91
2023-03-11T04:24:13.354Z,93708.09
2023-03-11T04:26:39.952Z,93727.59
2023-03-11T04:29:07.881Z,93720.06
2023-03-11T04:31:34.624Z,93715.50
2023-03-11T04:34:01.218Z,93714.47
2023-03-11T04:36:27.802Z,93714.25
2023-03-11T04:38:56.214Z,93718.25
2023-03-11T04:41:23.136Z,93717.69
2023-03-11T04:43:49.883Z,93721.47
2023-03-11T04:46:17.944Z,93714.03
2023-03-11T04:48:44.568Z,93719.47
2023-03-11T04:51:11.132Z,93723.59
2023-03-11T04:53:37.708Z,93719.72
2023-03-11T04:56:04.680Z,93730.22
2023-03-11T04:58:31.241Z,93735.00
2023-03-11T05:00:57.791Z,93735.03
2023-03-11T05:03:25.815Z,93741.13
2023-03-11T05:05:56.535Z,93748.31
2023-03-11T05:08:24.000Z,93749.53
2023-03-11T05:10:51.726Z,93744.28
2023-03-11T05:13:18.729Z,93758.09
2023-03-11T05:15:45.780Z,93742.88
2023-03-11T05:18:12.555Z,93751.00
2023-03-11T05:20:40.520Z,93746.22
2023-03-11T05:23:07.096Z,93745.94
2023-03-11T05:25:33.645Z,93748.88
2023-03-11T05:28:00.219Z,93752.78
2023-03-11T05:30:27.012Z,93773.69
2023-03-11T05:32:53.686Z,93773.34
2023-03-11T05:35:20.702Z,93773.69
2023-03-11T05:37:49.745Z,93775.75
2023-03-11T05:40:17.294Z,93776.53
2023-03-11T05:42:43.976Z,93780.53
2023-03-11T05:45:10.802Z,93782.13
2023-03-11T05:47:37.361Z,93772.66
2023-03-11T05:50:04.791Z,93787.16
2023-03-11T05:52:32.986Z,93787.94
2023-03-11T05:55:00.958Z,93784.53
2023-03-11T05:57:28.138Z,93791.38
2023-03-11T05:59:54.797Z,93781.69
2023-03-11T06:02:21.437Z,93774.25
2023-03-11T06:04:48.249Z,93775.06
2023-03-11T06:07:16.188Z,93777.47
2023-03-11T06:09:42.783Z,93773.66
2023-03-11T06:12:10.770Z,93775.75
2023-03-11T06:14:38.623Z,93782.22
2023-03-11T06:17:05.457Z,93787.81
2023-03-11T06:19:32.131Z,93789.81
2023-03-11T06:21:58.714Z,93795.44
2023-03-11T06:24:25.437Z,93792.72
2023-03-11T06:26:52.472Z,93800.00
2023-03-11T06:29:24.250Z,93806.06
2023-03-11T06:31:51.160Z,93807.75
2023-03-11T06:34:17.952Z,93805.84
2023-03-11T06:36:44.553Z,93813.13
2023-03-11T06:39:14.029Z,93813.34
2023-03-11T06:41:40.877Z,93809.03
2023-03-11T06:44:07.485Z,93813.97
2023-03-11T06:46:35.991Z,93813.97
2023-03-11T06:49:02.585Z,93823.66
2023-03-11T06:51:29.253Z,93809.31
2023-03-11T06:53:55.859Z,93810.91
2023-03-11T06:56:23.208Z,93809.69
2023-03-11T06:58:49.988Z,93807.84
2023-03-11T07:01:18.342Z,93810.47
2023-03-11T07:03:47.940Z,93812.06
2023-03-11T07:06:15.690Z,93817.53
2023-03-11T07:08:42.638Z,93816.75
2023-03-11T07:11:12.640Z,93836.69
2023-03-11T07:13:39.544Z,93843.31
2023-03-11T07:16:08.754Z,93846.97
2023-03-11T07:18:36.287Z,93847.78
2023-03-11T07:21:06.570Z,93852.00
2023-03-11T07:23:33.475Z,93852.00
2023-03-11T07:26:00.121Z,93852.78
2023-03-11T07:28:28.097Z,93849.94
2023-03-11T07:30:55.431Z,93865.91
2023-03-11T07:33:24.100Z,93859.06
2023-03-11T07:35:51.260Z,93860.66
2023-03-11T07:38:19.885Z,93860.66
2023-03-11T07:40:46.734Z,93858.25
2023-03-11T07:43:13.305Z,93869.31
2023-03-11T07:45:39.976Z,93875.81
2023-03-11T07:48:06.723Z,93878.44
2023-03-11T07:50:33.315Z,93873.09
2023-03-11T07:52:59.905Z,93878.81
2023-03-11T07:55:27.804Z,93888.94
2023-03-11T07:57:54.485Z,93896.00
2023-03-11T08:00:21.586Z,93895.19
2023-03-11T08:02:48.291Z,93892.59
2023-03-11T08:05:15.011Z,93906.50
2023-03-11T08:07:41.653Z,93905.69
2023-03-11T08:10:09.629Z,93911.75
2023-03-11T08:12:37.579Z,93910.72
2023-03-11T08:15:04.894Z,93908.53
2023-03-11T08:17:31.477Z,93908.28
2023-03-11T08:19:58.206Z,93913.50
2023-03-11T08:22:24.793Z,93914.84
2023-03-11T08:24:52.834Z,93914.00
2023-03-11T08:27:20.104Z,93912.47
2023-03-11T08:29:48.076Z,93912.19
2023-03-11T08:32:14.789Z,93920.97
2023-03-11T08:34:41.429Z,93921.22
2023-03-11T08:37:08.160Z,93932.13
2023-03-11T08:39:34.770Z,93924.53
2023-03-11T08:42:02.878Z,93926.34
2023-03-11T08:44:29.522Z,93922.44
2023-03-11T08:46:57.489Z,93925.25
2023-03-11T08:49:24.378Z,93933.63
2023-03-11T08:51:51.008Z,93926.34
2023-03-11T08:54:17.736Z,93938.97
2023-03-11T08:56:44.562Z,93938.06
2023-03-11T08:59:11.224Z,93938.31
2023-03-11T09:01:37.882Z,93944.94
2023-03-11T09:04:06.264Z,93930.19
2023-03-11T09:06:32.891Z,93935.50
2023-03-11T09:08:59.550Z,93935.84
2023-03-11T09:11:26.178Z,93937.31
2023-03-11T09:13:52.822Z,93945.75
2023-03-11T09:16:21.743Z,93935.78
2023-03-11T09:18:48.643Z,93948.81
2023-03-11T09:21:16.616Z,93939.56
2023-03-11T09:23:44.504Z,93941.69
2023-03-11T09:26:11.677Z,93940.38
2023-03-11T09:28:38.676Z,93951.00
2023-03-11T09:31:05.350Z,93948.00
2023-03-11T09:33:32.199Z,93948.78
2023-03-11T09:35:59.071Z,93949.81
2023-03-11T09:38:27.140Z,93960.25
2023-03-11T09:40:59.390Z,93962.63
2023-03-11T09:43:37.818Z,93971.81
2023-03-11T09:46:28.441Z,93976.00
2023-03-11T09:49:04.825Z,93973.78
2023-03-11T09:51:36.061Z,93972.84
2023-03-11T09:54:09.612Z,93974.81
2023-03-11T09:56:37.885Z,93970.22
2023-03-11T09:59:07.848Z,93978.34
2023-03-11T10:01:37.482Z,93975.81
2023-03-11T10:04:10.079Z,93974.94
2023-03-11T10:06:37.463Z,93973.06
2023-03-11T10:09:21.328Z,93978.22
2023-03-11T10:11:56.870Z,93976.69
2023-03-11T10:14:43.531Z,93977.78
2023-03-11T10:17:19.554Z,93982.94
2023-03-11T10:19:52.404Z,93984.34
2023-03-11T10:22:24.310Z,93989.16
2023-03-11T10:25:02.869Z,93978.06
2023-03-11T10:27:35.926Z,93978.06
2023-03-11T10:30:09.797Z,93990.63
2023-03-11T10:32:42.633Z,93988.34
2023-03-11T10:35:17.313Z,93988.28
2023-03-11T10:37:50.114Z,93995.34
2023-03-11T10:40:26.647Z,93994.66
2023-03-11T10:42:55.169Z,94012.72
2023-03-11T10:45:23.440Z,94016.06
2023-03-11T10:47:50.216Z,94011.34
2023-03-11T10:50:19.743Z,94011.69
2023-03-11T10:53:05.135Z,94014.75
2023-03-11T10:55:33.296Z,94017.63
2023-03-11T10:58:08.046Z,94012.56
2023-03-11T11:00:34.644Z,94017.66
2023-03-11T11:03:04.317Z,94015.69
2023-03-11T11:05:32.673Z,94017.22
2023-03-11T11:08:05.669Z,94021.44
2023-03-11T11:10:34.832Z,94023.22
2023-03-11T11:13:16.661Z,94025.47
2023-03-11T11:15:52.648Z,94029.94
2023-03-11T11:18:22.370Z,94027.53
2023-03-11T11:21:01.039Z,94027.72
2023-03-11T11:23:32.834Z,94033.88
2023-03-11T11:26:04.662Z,94021.97
2023-03-11T11:28:33.354Z,94021.59
2023-03-11T11:31:01.690Z,94018.50
2023-03-11T11:33:30.288Z,94015.47
2023-03-11T11:35:59.906Z,94015.63
2023-03-11T11:38:28.678Z,94013.38
2023-03-11T11:40:58.038Z,94010.38
2023-03-11T11:43:38.882Z,94014.19
2023-03-11T11:46:11.095Z,94011.66
2023-03-11T11:48:47.484Z,94014.75
2023-03-11T11:51:21.498Z,94009.91
2023-03-11T11:53:52.759Z,94012.66
2023-03-11T11:56:19.329Z,94013.97
2023-03-11T11:58:48.574Z,94008.91
2023-03-11T12:01:19.144Z,94003.09
2023-03-11T12:04:06.757Z,94001.91
2023-03-11T12:06:42.406Z,94002.91
2023-03-11T12:09:24.045Z,94001.13
2023-03-11T12:11:57.071Z,93996.28
2023-03-11T12:14:29.300Z,93994.84
2023-03-11T12:16:58.181Z,93991.88
2023-03-11T12:19:39.174Z,93990.31
2023-03-11T12:22:38.997Z,93997.22
2023-03-11T12:25:22.124Z,93985.44
2023-03-11T12:27:55.558Z,93982.97
2023-03-11T12:30:27.272Z,93983.41
2023-03-11T12:32:57.783Z,93981.91
2023-03-11T12:35:27.814Z,93975.59
2023-03-11T12:38:16.437Z,93979.81
2023-03-11T12:40:58.197Z,93975.81
2023-03-11T12:43:29.993Z,93969.34
2023-03-11T12:46:01.366Z,93968.41
2023-03-11T12:48:36.488Z,93967.53
2023-03-11T12:51:03.450Z,93962.13
2023-03-11T12:53:45.055Z,93964.59
2023-03-11T12:56:25.739Z,93965.38
2023-03-11T12:59:12.200Z,93957.47
2023-03-11T13:01:56.868Z,93962.16
2023-03-11T13:04:51.186Z,93955.38
2023-03-11T13:07:37.529Z,93959.66
2023-03-11T13:10:12.986Z,93961.78
2023-03-11T13:12:41.974Z,93951.88
2023-03-11T13:15:34.598Z,93952.56
2023-03-11T13:18:14.101Z,93958.75
2023-03-11T13:20:56.095Z,93954.00
2023-03-11T13:23:26.735Z,93966.38
2023-03-11T13:26:18.970Z,93963.38
2023-03-11T13:28:55.095Z,93968.38
2023-03-11T13:31:39.032Z,93973.59
2023-03-11T13:34:15.367Z,93967.78
2023-03-11T13:36:51.347Z,93972.47
2023-03-11T13:39:31.884Z,93977.50
2023-03-11T13:41:58.587Z,93972.94
2023-03-11T13:44:29.102Z,93968.84
2023-03-11T13:47:01.728Z,93972.34
2023-03-11T13:49:37.854Z,93971.81
2023-03-11T13:52:09.463Z,93969.53
2023-03-11T13:54:42.477Z,93975.25
2023-03-11T13:57:22.821Z,93978.56
2023-03-11T13:59:52.956Z,93971.06
2023-03-11T14:02:22.870Z,93973.81
2023-03-11T14:04:54.950Z,93975.50
2023-03-11T14:07:27.596Z,93967.66
2023-03-11T14:10:18.717Z,93965.69
2023-03-11T14:12:45.836Z,93964.50
2023-03-11T14:15:17.241Z,93963.81
2023-03-11T14:17:44.199Z,93963.75
2023-03-11T14:20:16.709Z,93966.06
2023-03-11T14:22:46.117Z,93964.50
2023-03-11T14:25:18.957Z,93963.16
2023-03-11T14:27:51.586Z,93959.09
2023-03-11T14:30:24.434Z,93962.22
2023-03-11T14:33:00.598Z,93975.88
2023-03-11T14:35:29.707Z,93963.81
2023-03-11T14:37:56.952Z,93966.63
2023-03-11T14:40:27.188Z,93967.28
2023-03-11T14:42:55.751Z,93971.56
2023-03-11T14:45:24.915Z,93967.72
2023-03-11T14:47:56.284Z,93970.56
2023-03-11T14:50:25.802Z,93972.88
2023-03-11T14:52:58.586Z,93978.25
2023-03-11T14:55:29.087Z,93976.16
2023-03-11T14:58:00.328Z,93974.00
2023-03-11T15:00:33.623Z,93979.84
2023-03-11T15:03:07.384Z,93977.41
2023-03-11T15:05:41.394Z,93976.47
2023-03-11T15:08:09.867Z,93974.50
2023-03-11T15:10:37.000Z,93975.38
2023-03-11T15:13:06.263Z,93965.56
2023-03-11T15:15:33.055Z,93969.72
2023-03-11T15:18:01.388Z,93982.34
2023-03-11T15:20:31.140Z,93978.63
2023-03-11T15:23:00.659Z,93988.34
2023-03-11T15:25:31.256Z,93993.34
2023-03-11T15:27:57.922Z,93988.50
2023-03-11T15:30:27.545Z,93985.78
2023-03-11T15:32:55.345Z,94003.09
2023-03-11T15:35:24.133Z,94013.13
2023-03-11T15:38:11.435Z,94012.97
2023-03-11T15:40:45.641Z,94020.72
2023-03-11T15:43:21.667Z,94015.50
2023-03-11T15:45:49.067Z,94015.72
2023-03-11T15:48:15.857Z,94020.41
2023-03-11T15:50:53.268Z,94018.25
2023-03-11T15:53:21.057Z,94018.25
2023-03-11T15:55:49.132Z,94007.69
2023-03-11T15:58:17.463Z,94011.00
2023-03-11T16:00:47.618Z,94002.31
2023-03-11T16:03:14.764Z,94011.56
2023-03-11T16:05:41.669Z,94006.34
2023-03-11T16:08:08.241Z,94009.84
2023-03-11T16:10:35.432Z,94007.81
2023-03-11T16:13:03.426Z,94008.16
2023-03-11T16:15:32.081Z,94008.97
2023-03-11T16:18:00.366Z,94015.16
2023-03-11T16:20:32.145Z,94017.34
2023-03-11T16:23:01.296Z,94025.44
2023-03-11T16:25:30.585Z,94019.59
2023-03-11T16:27:57.921Z,94015.59
2023-03-11T16:30:27.525Z,94019.16
2023-03-11T16:32:54.294Z,94023.72
2023-03-11T16:35:21.360Z,94031.00
2023-03-11T16:37:48.443Z,94020.50
2023-03-11T16:40:18.919Z,94007.44
2023-03-11T16:42:46.253Z,94008.75
2023-03-11T16:45:14.647Z,94007.22
2023-03-11T16:47:42.754Z,94017.22
2023-03-11T16:50:10.984Z,94028.09
2023-03-11T16:52:37.832Z,94032.91
2023-03-11T16:55:05.337Z,94035.97
2023-03-11T16:57:32.082Z,94052.28
2023-03-11T16:59:58.853Z,94055.13
2023-03-11T17:02:25.592Z,94052.94
2023-03-11T17:04:53.665Z,94053.75
2023-03-11T17:07:24.019Z,94059.63
2023-03-11T17:09:51.575Z,94064.00
2023-03-11T17:12:19.158Z,94060.28
2023-03-11T17:14:46.234Z,94060.72
2023-03-11T17:17:13.054Z,94055.28
2023-03-11T17:19:39.684Z,94062.91
2023-03-11T17:22:07.635Z,94071.38
2023-03-11T17:24:34.244Z,94072.19
2023-03-11T17:27:00.812Z,94072.41
2023-03-11T17:29:27.374Z,94081.88
2023-03-11T17:31:54.048Z,94091.78
2023-03-11T17:34:20.967Z,94093.97
2023-03-11T17:36:47.561Z,94098.78
2023-03-11T17:39:15.538Z,94102.41
2023-03-11T17:41:42.150Z,94124.22
2023-03-11T17:44:09.519Z,94111.53
2023-03-11T17:46:36.339Z,94123.84
2023-03-11T17:49:03.020Z,94126.47
2023-03-11T17:51:29.663Z,94121.00
2023-03-11T17:53:56.408Z,94124.22
2023-03-11T17:56:24.500Z,94133.91
2023-03-11T17:58:51.276Z,94141.56
2023-03-11T18:01:20.535Z,94136.69
2023-03-11T18:03:47.549Z,94150.59
2023-03-11T18:06:14.588Z,94156.28
2023-03-11T18:08:41.496Z,94151.25
2023-03-11T18:11:10.077Z,94158.91
2023-03-11T18:13:39.074Z,94159.72
2023-03-11T18:16:08.076Z,94158.09
2023-03-11T18:18:36.294Z,94161.09
2023-03-11T18:21:04.216Z,94167.16
2023-03-11T18:23:33.065Z,94164.31
2023-03-11T18:26:00.553Z,94166.13
2023-03-11T18:28:27.318Z,94170.56
2023-03-11T18:30:55.313Z,94166.13
2023-03-11T18:33:22.604Z,94179.03
2023-03-11T18:35:49.314Z,94178.44
2023-03-11T18:38:16.376Z,94174.22
2023-03-11T18:40:43.076Z,94178.66
2023-03-11T18:43:12.287Z,94180.47
2023-03-11T18:45:39.008Z,94184.13
2023-03-11T18:48:07.166Z,94183.09
2023-03-11T18:50:33.764Z,94176.25
2023-03-11T18:53:00.344Z,94189.16
2023-03-11T18:55:27.187Z,94177.88
2023-03-11T18:57:53.804Z,94184.34
2023-03-11T19:00:23.579Z,94200.69
2023-03-11T19:02:51.544Z,94214.59
2023-03-11T19:05:20.581Z,94216.19
2023-03-11T19:07:47.190Z,94219.03
2023-03-11T19:10:15.371Z,94214.81
2023-03-11T19:12:44.638Z,94212.19
2023-03-11T19:15:11.950Z,94217.44
2023-03-11T19:17:38.551Z,94221.06
2023-03-11T19:20:08.747Z,94209.56
2023-03-11T19:22:36.913Z,94214.59
2023-03-11T19:25:04.979Z,94213.25
2023-03-11T19:27:31.993Z,94217.66
2023-03-11T19:29:59.711Z,94224.50
2023-03-11T19:32:26.334Z,94224.72
2023-03-11T19:34:53.014Z,94223.91
2023-03-11T19:37:19.604Z,94230.66
2023-03-11T19:39:47.520Z,94230.19
2023-03-11T19:42:14.441Z,94227.63
2023-03-11T19:44:41.065Z,94236.41
2023-03-11T19:47:07.744Z,94232.00
2023-03-11T19:49:34.526Z,94229.81
2023-03-11T19:52:01.065Z,94228.31
2023-03-11T19:54:28.658Z,94232.06
2023-03-11T19:56:56.731Z,94229.53
2023-03-11T19:59:23.400Z,94238.53
2023-03-11T20:01:50.124Z,94229.22
2023-03-11T20:04:16.887Z,94229.22
2023-03-11T20:06:44.075Z,94231.03
2023-03-11T20:09:11.651Z,94233.66
2023-03-11T20:11:39.812Z,94230.03
2023-03-11T20:14:08.191Z,94238.09
2023-03-11T20:16:34.906Z,94239.72
2023-03-11T20:19:01.664Z,94248.38
2023-03-11T20:21:28.329Z,94245.97
2023-03-11T20:23:55.480Z,94245.38
2023-03-11T20:26:23.312Z,94249.84
2023-03-11T20:28:49.935Z,94252.44
2023-03-11T20:31:19.833Z,94256.31
2023-03-11T20:33:47.026Z,94255.06
2023-03-11T20:36:17.367Z,94266.59
2023-03-11T20:38:44.070Z,94272.63
2023-03-11T20:41:10.860Z,94260.53
2023-03-11T20:43:38.617Z,94266.81
2023-03-11T20:46:06.986Z,94266.81
2023-03-11T20:48:35.777Z,94269.22
2023-03-11T20:51:04.454Z,94268.84
2023-03-11T20:53:31.607Z,94270.44
2023-03-11T20:55:58.364Z,94270.44
2023-03-11T20:58:25.456Z,94276.50
2023-03-11T21:00:52.189Z,94276.13
2023-03-11T21:03:18.914Z,94277.50
2023-03-11T21:05:47.525Z,94276.91
2023-03-11T21:08:14.240Z,94277.13
2023-03-11T21:10:40.998Z,94280.78
2023-03-11T21:13:07.729Z,94272.91
2023-03-11T21:15:35.154Z,94276.53
2023-03-11T21:18:01.853Z,94283.59
2023-03-11T21:20:28.546Z,94274.34
2023-03-11T21:22:56.530Z,94276.16
2023-03-11T21:25:23.098Z,94271.50
2023-03-11T21:27:49.669Z,94281.41
2023-03-11T21:30:16.493Z,94274.34
2023-03-11T21:32:43.267Z,94277.75
2023-03-11T21:35:10.095Z,94280.19
2023-03-11T21:37:36.940Z,94274.56
2023-03-11T21:40:07.459Z,94279.00
2023-03-11T21:42:34.169Z,94280.38
2023-03-11T21:45:00.816Z,94285.03
2023-03-11T21:47:27.594Z,94275.75
2023-03-11T21:49:54.188Z,94290.69
2023-03-11T21:52:20.823Z,94288.84
2023-03-11T21:54:47.510Z,94286.44
2023-03-11T21:57:15.545Z,94288.06
2023-03-11T21:59:42.185Z,94298.75
2023-03-11T22:02:14.259Z,94285.66
2023-03-11T22:04:41.233Z,94288.28
2023-03-11T22:07:08.485Z,94285.06
2023-03-11T22:09:35.520Z,94284.47
2023-03-11T22:12:02.520Z,94288.47
2023-03-11T22:14:30.450Z,94299.41
2023-03-11T22:16:57.263Z,94303.41
2023-03-11T22:19:23.885Z,94294.16
2023-03-11T22:21:50.649Z,94299.59
2023-03-11T22:24:17.344Z,94300.41
2023-03-11T22:26:43.935Z,94307.25
2023-03-11T22:29:13.352Z,94302.00
2023-03-11T22:31:41.658Z,94308.50
2023-03-11T22:34:08.246Z,94308.50
2023-03-11T22:36:34.833Z,94305.44
2023-03-11T22:39:04.170Z,94306.47
2023-03-11T22:41:30.936Z,94300.03
2023-03-11T22:43:57.558Z,94303.66
2023-03-11T22:46:24.284Z,94309.50
2023-03-11T22:48:52.339Z,94309.91
2023-03-11T22:51:18.913Z,94313.94
2023-03-11T22:53:45.546Z,94311.75
2023-03-11T22:56:14.751Z,94311.94
2023-03-11T22:58:41.831Z,94311.94
2023-03-11T23:01:08.880Z,94315.38
2023-03-11T23:03:36.494Z,94321.84
2023-03-11T23:06:07.540Z,94322.66
2023-03-11T23:08:34.712Z,94323.66
2023-03-11T23:11:02.998Z,94325.47
2023-03-11T23:13:30.606Z,94329.91
2023-03-11T23:16:02.402Z,94331.75
2023-03-11T23:18:28.990Z,94335.97
2023-03-11T23:20:55.906Z,94341.41
2023-03-11T23:23:23.846Z,94345.84
2023-03-11T23:25:50.512Z,94341.00
2023-03-11T23:28:17.145Z,94342.81
2023-03-11T23:30:43.759Z,94343.25
2023-03-11T23:33:10.389Z,94340.03
2023-03-11T23:35:41.768Z,94336.59
2023-03-11T23:38:09.038Z,94343.66
2023-03-11T23:40:39.766Z,94341.63
2023-03-11T23:43:06.362Z,94336.19
2023-03-11T23:45:33.001Z,94335.00
2023-03-11T23:47:59.605Z,94340.66
2023-03-11T23:50:26.162Z,94340.84
2023-03-11T23:52:52.759Z,94331.97
2023-03-11T23:55:19.368Z,94326.72
2023-03-11T23:57:47.355Z,94335.63
